Time;durP1;ratioP1;P1;durP2;ratioP2;P2;SDS_P1;SDS_P2;PMS_P1;PMS_P2;Temp;Humidity;BMP_temperature;BMP_pressure;BME280_temperature;BME280_humidity;BME280_pressure;Samples;Min_cycle;Max_cycle;Signal;HPM_P1;HPM_P2
2022/05/12 00:02:22;;;;;;;;;;;8.10;99.90;;;;;;4905758;29;19915;-75
2022/05/12 00:04:48;;;;;;;;;;;8.10;99.90;;;;;;4905950;29;20462;-75
2022/05/12 00:07:14;;;;;;;;;;;8.10;99.90;;;;;;4901009;29;20407;-75
2022/05/12 00:09:39;;;;;;;;;;;8.10;99.90;;;;;;4894332;29;19930;-75
2022/05/12 00:12:05;;;;;;;;;;;8.10;99.90;;;;;;4904081;29;19926;-75
2022/05/12 00:14:30;;;;;;;;;;;8.10;99.90;;;;;;4905188;29;19919;-75
2022/05/12 00:16:59;;;;;;;;;;;8.10;99.90;;;;;;4904682;29;19911;-75
2022/05/12 00:19:26;;;;;;;;;;;8.00;99.90;;;;;;4906310;29;20406;-74
2022/05/12 00:21:52;;;;;;;;;;;8.00;99.90;;;;;;4905159;29;19915;-75
2022/05/12 00:24:17;;;;;;;;;;;8.00;99.90;;;;;;4903203;29;19950;-75
2022/05/12 00:26:43;;;;;;;;;;;8.00;99.90;;;;;;4905168;29;19915;-75
2022/05/12 00:29:09;;;;;;;;;;;8.00;99.90;;;;;;4905583;29;19911;-76
2022/05/12 00:31:36;;;;;;;;;;;7.90;99.90;;;;;;4904604;29;19961;-74
2022/05/12 00:34:01;;;;;;;;;;;8.00;99.90;;;;;;4905180;29;19945;-75
2022/05/12 00:36:27;;;;;;;;;;;8.00;99.90;;;;;;4906162;29;19922;-75
2022/05/12 00:38:52;;;;;;;;;;;7.90;99.90;;;;;;4904137;29;20366;-75
2022/05/12 00:41:18;;;;;;;;;;;7.80;99.90;;;;;;4904980;29;19939;-74
2022/05/12 00:43:47;;;;;;;;;;;7.80;99.90;;;;;;4904408;29;19990;-74
2022/05/12 00:46:14;;;;;;;;;;;7.70;99.90;;;;;;4905159;29;19911;-75
2022/05/12 00:48:40;;;;;;;;;;;7.70;99.90;;;;;;4906118;29;19919;-75
2022/05/12 00:51:07;;;;;;;;;;;7.70;99.90;;;;;;4904872;29;19930;-75
2022/05/12 00:53:34;;;;;;;;;;;7.70;99.90;;;;;;4903783;29;20434;-75
2022/05/12 00:56:00;;;;;;;;;;;7.70;99.90;;;;;;4901700;29;19915;-74
2022/05/12 00:58:26;;;;;;;;;;;7.80;99.90;;;;;;4906089;29;19918;-75
2022/05/12 01:00:52;;;;;;;;;;;7.70;99.90;;;;;;4904175;29;19921;-75
2022/05/12 01:03:19;;;;;;;;;;;7.80;99.90;;;;;;4906179;29;19911;-75
2022/05/12 01:05:45;;;;;;;;;;;7.70;99.90;;;;;;4905320;29;19926;-74
2022/05/12 01:08:12;;;;;;;;;;;7.70;99.90;;;;;;4897191;29;19923;-75
2022/05/12 01:10:39;;;;;;;;;;;7.70;99.90;;;;;;4892178;29;19935;-75
2022/05/12 01:13:04;;;;;;;;;;;7.60;99.90;;;;;;4887860;29;19915;-75
2022/05/12 01:15:30;;;;;;;;;;;7.60;99.90;;;;;;4887291;29;19967;-75
2022/05/12 01:18:05;;;;;;;;;;;7.50;99.90;;;;;;4905104;29;19915;-75
2022/05/12 01:20:31;;;;;;;;;;;7.50;99.90;;;;;;4904582;29;19915;-75
2022/05/12 01:22:59;;;;;;;;;;;7.40;99.90;;;;;;4904741;29;19921;-74
2022/05/12 01:25:27;;;;;;;;;;;7.30;99.90;;;;;;4903877;29;19915;-75
2022/05/12 01:27:52;;;;;;;4.15;2.70;;;7.20;99.90;;;;;;4904780;29;20326;-75
2022/05/12 01:30:20;;;;;;;6.72;2.60;;;7.10;99.90;;;;;;4890041;29;20039;-75
2022/05/12 01:32:47;;;;;;;10.70;4.00;;;7.00;99.90;;;;;;4907052;29;20087;-75
2022/05/12 01:35:15;;;;;;;7.25;3.70;;;7.20;99.90;;;;;;4904092;29;20087;-75
2022/05/12 01:37:43;;;;;;;4.40;3.15;;;7.20;99.90;;;;;;4908713;29;20020;-75
2022/05/12 01:40:11;;;;;;;6.07;3.05;;;7.30;99.90;;;;;;4906845;29;20468;-74
2022/05/12 01:42:37;;;;;;;6.20;2.63;;;7.30;99.90;;;;;;4909007;29;20031;-75
2022/05/12 01:45:06;;;;;;;8.68;2.50;;;7.20;99.90;;;;;;4905896;29;20038;-75
2022/05/12 01:47:32;;;;;;;9.13;3.55;;;7.20;99.90;;;;;;4908417;29;20032;-75
2022/05/12 01:49:58;;;;;;;8.25;3.33;;;7.20;99.90;;;;;;4897130;29;20059;-75
2022/05/12 01:52:23;;;;;;;13.98;3.67;;;7.20;99.90;;;;;;4909864;29;20036;-75
2022/05/12 01:54:49;;;;;;;10.23;3.45;;;7.20;99.90;;;;;;4901833;29;20427;-75
2022/05/12 01:57:15;;;;;;;8.27;3.60;;;7.20;99.90;;;;;;4908551;29;20039;-75
2022/05/12 01:59:40;;;;;;;4.70;2.60;;;7.20;99.90;;;;;;4907943;29;20036;-75
2022/05/12 02:02:06;;;;;;;4.20;2.58;;;7.20;99.90;;;;;;4904991;29;20032;-75
2022/05/12 02:04:31;;;;;;;3.72;2.67;;;7.00;99.90;;;;;;4905131;29;20107;-75
2022/05/12 02:06:57;;;;;;;8.02;2.65;;;6.90;99.90;;;;;;4906687;29;20043;-75
2022/05/12 02:09:23;;;;;;;6.95;2.65;;;6.90;99.90;;;;;;4904645;29;20055;-76
2022/05/12 02:11:48;;;;;;;6.25;2.80;;;6.90;99.90;;;;;;4906922;29;20144;-75
2022/05/12 02:14:14;;;;;;;7.05;4.38;;;6.90;99.90;;;;;;4903831;29;20293;-74
2022/05/12 02:16:40;;;;;;;4.82;2.90;;;6.80;99.90;;;;;;4899998;29;20512;-74
2022/05/12 02:19:08;;;;;;;4.82;2.38;;;6.80;99.90;;;;;;4903904;29;20035;-75
2022/05/12 02:21:34;;;;;;;6.32;2.53;;;6.70;99.90;;;;;;4903228;29;20032;-74
2022/05/12 02:24:00;;;;;;;6.30;2.60;;;6.70;99.90;;;;;;4907778;29;20040;-75
2022/05/12 02:26:27;;;;;;;9.63;2.70;;;6.60;99.90;;;;;;4908147;29;20028;-74
2022/05/12 02:28:52;;;;;;;5.45;2.80;;;6.50;99.90;;;;;;4908644;29;20096;-75
2022/05/12 02:31:18;;;;;;;9.57;3.38;;;6.50;99.90;;;;;;4906708;29;20550;-75
2022/05/12 02:33:44;;;;;;;7.20;2.85;;;6.50;99.90;;;;;;4906949;29;20050;-74
2022/05/12 02:36:09;;;;;;;6.22;2.80;;;6.50;99.90;;;;;;4903680;29;20467;-75
2022/05/12 02:38:35;;;;;;;6.65;2.92;;;6.50;99.90;;;;;;4891325;29;21578;-75
2022/05/12 02:41:01;;;;;;;5.93;2.45;;;6.50;99.90;;;;;;4908031;29;20039;-74
2022/05/12 02:43:29;;;;;;;4.15;2.58;;;6.50;99.90;;;;;;4908879;29;20032;-74
2022/05/12 02:45:56;;;;;;;6.40;2.70;;;6.50;99.90;;;;;;4906316;29;20103;-75
2022/05/12 02:48:24;;;;;;;9.15;2.97;;;6.40;99.90;;;;;;4907617;29;20043;-74
2022/05/12 02:50:50;;;;;;;11.18;2.78;;;6.40;99.90;;;;;;4906583;29;20043;-75
2022/05/12 02:53:16;;;;;;;6.07;3.53;;;6.30;99.90;;;;;;4905068;29;20044;-75
2022/05/12 02:55:42;;;;;;;8.07;3.00;;;6.20;99.90;;;;;;4907065;29;20323;-75
2022/05/12 02:58:08;;;;;;;11.23;3.30;;;6.30;99.90;;;;;;4906063;29;20551;-74
2022/05/12 03:00:34;;;;;;;6.95;2.72;;;6.30;99.90;;;;;;4918930;29;20415;-75
2022/05/12 03:03:01;;;;;;;6.80;3.35;;;6.40;99.90;;;;;;4906343;29;20031;-74
2022/05/12 03:05:27;;;;;;;12.10;3.53;;;6.40;99.90;;;;;;4907160;29;20040;-75
2022/05/12 03:07:53;;;;;;;5.55;2.70;;;6.40;99.90;;;;;;4907625;29;20036;-74
2022/05/12 03:10:20;;;;;;;8.00;2.53;;;6.30;99.90;;;;;;4902318;29;20052;-75
2022/05/12 03:12:45;;;;;;;5.45;2.53;;;6.20;99.90;;;;;;4907198;29;20878;-74
2022/05/12 03:15:12;;;;;;;5.72;2.20;;;6.10;99.90;;;;;;4901440;29;20032;-75
2022/05/12 03:17:39;;;;;;;8.02;3.10;;;5.90;99.90;;;;;;4908384;29;20369;-75
2022/05/12 03:20:09;;;;;;;10.13;2.90;;;5.90;99.90;;;;;;4907061;29;20716;-75
2022/05/12 03:22:35;;;;;;;7.07;3.10;;;5.90;99.90;;;;;;4904528;29;20035;-75
2022/05/12 03:25:02;;;;;;;6.65;2.70;;;5.90;99.90;;;;;;4905784;29;20112;-75
2022/05/12 03:27:27;;;;;;;6.35;2.78;;;5.90;99.90;;;;;;4901348;29;20032;-75
2022/05/12 03:29:53;;;;;;;5.68;2.53;;;5.90;99.90;;;;;;4906183;29;20042;-75
2022/05/12 03:32:18;;;;;;;10.20;2.85;;;5.90;99.90;;;;;;4908516;29;20040;-75
2022/05/12 03:34:44;;;;;;;6.65;3.20;;;5.80;99.90;;;;;;4902623;29;20041;-74
2022/05/12 03:37:11;;;;;;;7.90;3.42;;;5.70;99.90;;;;;;4907183;29;20559;-74
2022/05/12 03:39:38;;;;;;;5.40;2.63;;;5.60;99.90;;;;;;4921116;29;20564;-74
2022/05/12 03:42:10;;;;;;;9.32;3.33;;;5.60;99.90;;;;;;4905895;29;20044;-74
2022/05/12 03:44:50;;;;;;;5.30;2.65;;;5.60;99.90;;;;;;4899148;29;20032;-74
2022/05/12 03:47:21;;;;;;;5.72;2.58;;;5.60;99.90;;;;;;4902829;29;20098;-74
2022/05/12 03:49:51;;;;;;;7.47;2.70;;;5.50;99.90;;;;;;4906832;29;20044;-74
2022/05/12 03:52:18;;;;;;;5.13;2.50;;;5.40;99.90;;;;;;4905632;29;20099;-75
2022/05/12 03:54:44;;;;;;;5.63;2.72;;;5.50;99.90;;;;;;4906853;29;20122;-75
2022/05/12 03:57:12;;;;;;;4.13;2.53;;;5.60;99.90;;;;;;4905254;29;20077;-74
2022/05/12 03:59:39;;;;;;;6.85;2.63;;;5.70;99.90;;;;;;4908075;29;20555;-74
2022/05/12 04:02:06;;;;;;;2.83;2.03;;;5.70;99.90;;;;;;4905140;29;20510;-75
2022/05/12 04:04:32;;;;;;;5.60;2.67;;;5.50;99.90;;;;;;4906409;29;20028;-74
2022/05/12 04:06:58;;;;;;;4.85;2.88;;;5.40;99.90;;;;;;4907319;29;20161;-74
2022/05/12 04:09:24;;;;;;;7.18;3.22;;;5.30;99.90;;;;;;4904011;29;20508;-74
2022/05/12 04:11:50;;;;;;;7.50;3.63;;;5.30;99.90;;;;;;4906294;29;20032;-74
2022/05/12 04:14:16;;;;;;;8.32;5.30;;;5.40;99.90;;;;;;4907136;29;20554;-74
2022/05/12 04:16:41;;;;;;;8.88;3.63;;;5.60;99.90;;;;;;4906204;29;20036;-74
2022/05/12 04:19:07;;;;;;;7.63;3.53;;;5.60;99.90;;;;;;4905869;29;20043;-74
2022/05/12 04:21:37;;;;;;;4.10;2.95;;;5.80;99.90;;;;;;4904361;29;20067;-74
2022/05/12 04:24:05;;;;;;;8.45;3.50;;;5.80;99.90;;;;;;4906848;29;20086;-74
2022/05/12 04:26:32;;;;;;;4.32;2.50;;;5.80;99.90;;;;;;4906024;29;20042;-74
2022/05/12 04:28:58;;;;;;;6.03;2.83;;;5.80;99.90;;;;;;4904871;29;20058;-75
2022/05/12 04:31:24;;;;;;;6.13;3.10;;;5.70;99.90;;;;;;4919621;29;20491;-75
2022/05/12 04:36:34;;;;;;;6.90;2.63;;;5.60;99.90;;;;;;4902311;29;20130;-75
2022/05/12 04:39:00;;;;;;;4.35;2.75;;;5.50;99.90;;;;;;4904623;29;20059;-75
2022/05/12 04:41:26;;;;;;;6.28;2.72;;;5.50;99.90;;;;;;4906141;29;20039;-75
2022/05/12 04:43:52;;;;;;;10.20;3.38;;;5.50;99.90;;;;;;4906812;29;20123;-74
2022/05/12 04:46:18;;;;;;;8.52;3.50;;;5.40;99.90;;;;;;4901989;29;20036;-75
2022/05/12 04:48:43;;;;;;;4.70;2.75;;;5.40;99.90;;;;;;4905589;29;20032;-74
2022/05/12 04:51:09;;;;;;;6.60;2.80;;;5.40;99.90;;;;;;4904659;29;20181;-74
2022/05/12 04:53:35;;;;;;;6.68;3.35;;;5.30;99.90;;;;;;4902527;29;20514;-74
2022/05/12 04:56:01;;;;;;;5.32;2.75;;;5.30;99.90;;;;;;4905848;29;20020;-74
2022/05/12 04:58:27;;;;;;;6.97;2.50;;;5.40;99.90;;;;;;4901597;29;20119;-74
2022/05/12 05:00:53;;;;;;;7.50;3.00;;;5.40;99.90;;;;;;4902632;29;20036;-74
2022/05/12 05:03:19;;;;;;;6.88;3.00;;;5.40;99.90;;;;;;4904950;29;20040;-74
2022/05/12 05:05:45;;;;;;;5.97;3.30;;;5.50;99.90;;;;;;4905432;29;20039;-75
2022/05/12 05:08:16;;;;;;;3.63;2.65;;;5.50;99.90;;;;;;4902552;29;20056;-75
2022/05/12 05:10:42;;;;;;;;;;;5.50;99.90;;;;;;4904187;29;20043;-74
2022/05/12 05:13:08;;;;;;;6.15;2.42;;;5.50;99.90;;;;;;4909978;29;19937;-75
2022/05/12 05:15:35;;;;;;;4.65;2.55;;;5.70;99.90;;;;;;4908207;29;20065;-75
2022/05/12 05:18:01;;;;;;;4.88;2.92;;;5.70;99.90;;;;;;4909357;29;20032;-75
2022/05/12 05:20:30;;;;;;;5.30;2.80;;;5.80;99.90;;;;;;4906592;29;20032;-75
2022/05/12 05:22:56;;;;;;;10.70;2.72;;;5.80;99.90;;;;;;4907123;29;20040;-75
2022/05/12 05:25:22;;;;;;;4.57;2.47;;;5.90;99.90;;;;;;4907713;29;20051;-74
2022/05/12 05:27:49;;;;;;;4.50;2.80;;;5.90;99.90;;;;;;4907663;29;20511;-74
2022/05/12 05:30:19;;;;;;;4.82;2.55;;;5.90;99.90;;;;;;4910502;29;20070;-74
2022/05/12 05:32:48;;;;;;;4.28;2.30;;;6.00;99.90;;;;;;4909766;29;20032;-75
2022/05/12 05:35:14;;;;;;;5.57;2.50;;;6.00;99.90;;;;;;4908275;29;20084;-74
2022/05/12 05:37:42;;;;;;;2.65;2.45;;;6.10;99.90;;;;;;4908502;29;20032;-73
2022/05/12 05:40:09;;;;;;;3.22;2.65;;;6.20;99.90;;;;;;4908489;29;20562;-74
2022/05/12 05:42:35;;;;;;;5.47;3.33;;;6.20;99.90;;;;;;4908521;29;20036;-74
2022/05/12 05:45:08;;;;;;;4.60;3.35;;;6.40;99.90;;;;;;4906962;29;20432;-73
2022/05/12 05:47:34;;;;;;;3.80;2.90;;;6.50;99.90;;;;;;4905676;29;20036;-74
2022/05/12 05:50:00;;;;;;;5.25;2.80;;;6.60;99.90;;;;;;4905927;29;20048;-74
2022/05/12 05:55:10;;;;;;;6.82;2.70;;;6.80;99.90;;;;;;4907402;29;20403;-74
2022/05/12 05:57:36;;;;;;;5.05;2.70;;;6.90;99.90;;;;;;4908138;29;20542;-74
2022/05/12 06:00:05;;;;;;;7.75;3.20;;;6.90;99.90;;;;;;4905496;29;20628;-74
2022/05/12 06:02:31;;;;;;;8.95;3.80;;;7.00;99.90;;;;;;4907048;29;20139;-73
2022/05/12 06:04:57;;;;;;;5.00;3.20;;;7.10;99.90;;;;;;4907652;29;20118;-74
2022/05/12 06:07:23;;;;;;;7.22;3.60;;;7.30;99.90;;;;;;4908879;29;20111;-74
2022/05/12 06:09:49;;;;;;;5.13;2.88;;;7.40;99.90;;;;;;4905708;29;20039;-73
2022/05/12 06:12:15;;;;;;;7.50;3.15;;;7.50;99.90;;;;;;4902320;29;20028;-74
2022/05/12 06:14:40;;;;;;;7.82;3.08;;;7.60;99.90;;;;;;4902915;29;20543;-74
2022/05/12 06:17:06;;;;;;;4.20;2.55;;;7.70;99.90;;;;;;4904101;29;20074;-74
2022/05/12 06:19:32;;;;;;;5.35;2.80;;;7.80;99.90;;;;;;4904120;29;20544;-74
2022/05/12 06:21:58;;;;;;;7.88;3.38;;;7.90;99.90;;;;;;4917607;29;20575;-75
2022/05/12 06:24:24;;;;;;;5.88;3.83;;;8.10;99.90;;;;;;4902674;29;20043;-75
2022/05/12 06:26:51;;;;;;;4.32;2.80;;;8.30;99.90;;;;;;4903880;29;20483;-75
2022/05/12 06:29:17;;;;;;;30.17;10.43;;;8.40;99.90;;;;;;4906266;29;20112;-74
2022/05/12 06:31:43;;;;;;;8.00;4.70;;;8.50;99.90;;;;;;4903192;29;20036;-75
2022/05/12 06:34:09;;;;;;;7.70;3.80;;;8.60;99.90;;;;;;4904298;29;20092;-75
2022/05/12 06:36:34;;;;;;;7.45;3.40;;;8.70;99.90;;;;;;4906082;29;20548;-75
2022/05/12 06:39:00;;;;;;;6.57;2.53;;;8.90;99.90;;;;;;4904898;29;20039;-74
2022/05/12 06:41:26;;;;;;;8.23;3.28;;;9.10;99.90;;;;;;4904686;29;20035;-74
2022/05/12 06:43:53;;;;;;;8.02;2.92;;;9.40;99.90;;;;;;4906103;29;20028;-75
2022/05/12 06:46:20;;;;;;;10.48;2.72;;;9.60;99.90;;;;;;4902786;29;20039;-75
2022/05/12 06:48:49;;;;;;;13.32;2.53;;;9.90;99.90;;;;;;4903459;29;20040;-75
2022/05/12 06:51:15;;;;;;;12.27;2.95;;;10.10;99.90;;;;;;4896612;29;20036;-75
2022/05/12 06:53:41;;;;;;;12.93;2.75;;;10.30;99.90;;;;;;4895400;29;20040;-75
2022/05/12 06:56:07;;;;;;;10.95;3.00;;;10.60;99.80;;;;;;4896994;29;20400;-75
2022/05/12 06:58:34;;;;;;;13.95;2.92;;;10.80;98.70;;;;;;4894435;29;20834;-74
2022/05/12 07:01:00;;;;;;;9.52;2.72;;;11.00;98.00;;;;;;4895156;29;20040;-74
2022/05/12 07:03:29;;;;;;;10.15;2.80;;;11.40;97.50;;;;;;4899520;29;20032;-74
2022/05/12 07:05:57;;;;;;;7.28;2.38;;;11.60;96.70;;;;;;4881676;29;20032;-73
2022/05/12 07:08:23;;;;;;;5.55;1.90;;;12.00;96.00;;;;;;4892592;29;20059;-73
2022/05/12 07:10:50;;;;;;;7.88;2.08;;;12.40;94.40;;;;;;4892981;29;20043;-74
2022/05/12 07:13:20;;;;;;;5.88;1.90;;;12.70;92.90;;;;;;4898941;29;20555;-75
2022/05/12 07:15:48;;;;;;;8.88;2.25;;;12.90;92.70;;;;;;4902343;29;20035;-75
2022/05/12 07:18:15;;;;;;;7.00;1.70;;;13.20;92.30;;;;;;4893906;29;20084;-75
2022/05/12 07:28:53;;;;;;;11.52;1.60;;;14.10;90.20;;;;;;4895955;29;20043;-75
2022/05/12 07:31:19;;;;;;;10.50;1.75;;;14.30;89.80;;;;;;4905487;29;20043;-74
2022/05/12 07:33:46;;;;;;;5.88;1.67;;;14.40;88.80;;;;;;4905628;29;20028;-75
2022/05/12 07:36:34;;;;;;;6.53;1.60;;;14.50;88.70;;;;;;4904246;29;20086;-75
2022/05/12 07:39:00;;;;;;;6.68;1.40;;;14.70;85.90;;;;;;4903995;29;20036;-75
2022/05/12 07:41:27;;;;;;;10.70;1.90;;;14.80;84.70;;;;;;4902285;29;20032;-75
2022/05/12 07:43:54;;;;;;;9.98;1.70;;;15.20;83.30;;;;;;4901132;29;20303;-74
2022/05/12 07:46:23;;;;;;;9.60;1.58;;;15.90;80.70;;;;;;4898226;29;20036;-75
2022/05/12 07:48:50;;;;;;;4.53;1.13;;;16.60;80.40;;;;;;4896335;29;20035;-74
2022/05/12 07:51:17;;;;;;;8.93;1.58;;;18.70;72.30;;;;;;4894205;29;20087;-75
2022/05/12 07:53:46;;;;;;;5.75;1.20;;;21.50;63.20;;;;;;4890327;29;20040;-74
2022/05/12 07:56:12;;;;;;;8.90;1.23;;;24.70;54.10;;;;;;4886861;29;20036;-74
2022/05/12 07:58:38;;;;;;;6.93;1.40;;;24.10;54.00;;;;;;4893366;29;20024;-78
2022/05/12 08:01:05;;;;;;;6.25;1.15;;;25.70;47.30;;;;;;4900426;29;20035;-78
2022/05/12 08:03:31;;;;;;;5.15;1.25;;;27.60;45.90;;;;;;4898620;29;20028;-78
2022/05/12 08:05:58;;;;;;;5.20;1.20;;;29.00;41.60;;;;;;4897525;29;20036;-77
2022/05/12 08:08:24;;;;;;;6.80;1.20;;;29.20;38.90;;;;;;4903864;29;20043;-77
2022/05/12 08:10:49;;;;;;;7.07;1.17;;;30.60;37.80;;;;;;4912333;29;20055;-77
2022/05/12 08:13:16;;;;;;;4.40;1.10;;;30.10;36.60;;;;;;4901596;29;20538;-77
2022/05/12 08:15:49;;;;;;;5.40;1.00;;;30.80;37.60;;;;;;4900924;29;20036;-76
2022/05/12 08:18:23;;;;;;;4.15;1.08;;;31.40;35.80;;;;;;4891853;29;20388;-77
2022/05/12 08:20:49;;;;;;;6.88;1.60;;;31.40;34.70;;;;;;4890025;29;20087;-76
2022/05/12 08:23:16;;;;;;;5.03;1.17;;;31.60;36.60;;;;;;4887409;29;20551;-74
2022/05/12 08:25:43;;;;;;;5.05;1.00;;;30.40;35.00;;;;;;4887738;29;20036;-77
2022/05/12 08:28:12;;;;;;;4.85;0.98;;;31.80;36.70;;;;;;4891302;29;20043;-78
2022/05/12 08:30:37;;;;;;;6.45;1.42;;;32.70;35.00;;;;;;4894333;29;20042;-78
2022/05/12 08:33:03;;;;;;;4.28;1.40;;;32.80;33.30;;;;;;4891943;29;20070;-78
2022/05/12 08:35:29;;;;;;;8.48;1.25;;;32.80;34.90;;;;;;4892463;29;20115;-78
2022/05/12 08:37:54;;;;;;;4.75;1.40;;;32.60;33.80;;;;;;4889518;29;20405;-76
2022/05/12 08:40:35;;;;;;;4.38;1.08;;;32.10;34.40;;;;;;4896213;29;21415;-75
2022/05/12 08:43:23;;;;;;;5.32;1.13;;;31.50;36.60;;;;;;4898433;29;20039;-75
2022/05/12 08:45:50;;;;;;;4.30;0.90;;;32.30;33.40;;;;;;4896518;29;20363;-77
2022/05/12 08:48:17;;;;;;;4.50;1.00;;;32.10;32.40;;;;;;4902095;29;20082;-77
2022/05/12 08:50:50;;;;;;;5.32;1.60;;;31.90;34.40;;;;;;4894095;29;20063;-76
2022/05/12 08:53:29;;;;;;;7.03;1.00;;;31.80;32.10;;;;;;4570907;29;10001234;-77
2022/05/12 08:55:59;;;;;;;3.60;0.80;;;30.70;33.90;;;;;;4549711;29;10001466;-76
2022/05/12 08:58:39;;;;;;;5.97;1.00;;;30.20;34.20;;;;;;4887416;29;21270;-78
2022/05/12 09:01:15;;;;;;;5.93;1.00;;;30.40;40.50;;;;;;4885633;29;20111;-78
2022/05/12 09:04:00;;;;;;;7.22;1.15;;;29.70;31.40;;;;;;4889399;29;20036;-76
2022/05/12 09:06:35;;;;;;;4.40;0.73;;;29.30;33.00;;;;;;4889046;29;20044;-78
2022/05/12 09:09:09;;;;;;;4.28;0.90;;;29.50;36.90;;;;;;4561452;28;10000123;-75
2022/05/12 09:11:50;;;;;;;4.30;1.10;;;29.40;39.40;;;;;;4899964;29;20183;-76
2022/05/12 09:14:29;;;;;;;5.32;1.15;;;28.40;39.90;;;;;;4900633;29;20439;-76
2022/05/12 09:16:56;;;;;;;4.38;1.15;;;27.30;39.30;;;;;;4895301;29;20055;-77
2022/05/12 09:19:22;;;;;;;3.97;1.00;;;27.60;41.90;;;;;;4899882;29;20028;-77
2022/05/12 09:21:49;;;;;;;5.43;1.17;;;27.40;42.00;;;;;;4902771;29;20468;-77
2022/05/12 09:24:14;;;;;;;5.93;1.27;;;26.00;41.10;;;;;;4901344;29;20108;-74
2022/05/12 09:26:44;;;;;;;5.25;1.13;;;24.50;43.80;;;;;;4898627;29;20070;-73
2022/05/12 09:29:12;;;;;;;5.82;1.10;;;23.20;49.20;;;;;;4896923;29;20465;-74
2022/05/12 09:31:38;;;;;;;4.13;0.68;;;22.10;52.90;;;;;;4898061;29;20095;-75
2022/05/12 09:34:25;;;;;;;3.38;1.17;;;22.30;50.80;;;;;;4901165;29;20024;-74
2022/05/12 09:36:51;;;;;;;4.03;0.95;;;22.70;53.60;;;;;;4899143;29;20033;-75
2022/05/12 09:39:38;;;;;;;4.22;1.17;;;23.50;47.90;;;;;;4899167;29;20035;-75
2022/05/12 09:42:09;;;;;;;4.88;1.40;;;23.70;46.50;;;;;;4893738;29;20036;-76
2022/05/12 09:44:35;;;;;;;4.90;0.70;;;24.20;47.00;;;;;;4891205;29;20752;-78
2022/05/12 09:47:05;;;;;;;4.07;1.05;;;25.20;49.10;;;;;;4893359;29;20369;-77
2022/05/12 09:49:38;;;;;;;3.30;1.02;;;26.60;44.80;;;;;;4902008;29;20492;-76
2022/05/12 09:52:21;;;;;;;6.97;1.17;;;27.90;45.20;;;;;;4903005;29;20028;-75
2022/05/12 09:54:47;;;;;;;3.72;1.13;;;29.40;40.10;;;;;;4903733;29;20043;-77
2022/05/12 09:57:24;;;;;;;2.53;0.70;;;29.50;35.40;;;;;;4904364;29;20497;-76
2022/05/12 09:59:57;;;;;;;6.03;1.20;;;28.40;36.60;;;;;;4895501;29;20248;-76
2022/05/12 10:07:53;;;;;;;5.30;0.82;;;26.90;35.20;;;;;;4899173;29;20028;-76
2022/05/12 10:08:28;;;;;;;6.15;1.35;;;25.10;45.80;;;;;;4901026;29;21768;-76
2022/05/12 10:11:03;;;;;;;3.60;0.90;;;25.00;46.10;;;;;;4903246;29;20972;-76
2022/05/12 10:13:53;;;;;;;7.90;1.08;;;24.70;42.00;;;;;;4905891;29;20114;-76
2022/05/12 10:16:25;;;;;;;3.20;0.50;;;23.10;46.50;;;;;;4899764;29;20062;-75
2022/05/12 10:18:55;;;;;;;5.03;0.73;;;22.80;51.90;;;;;;4903692;29;20063;-77
2022/05/12 10:21:32;;;;;;;4.80;0.80;;;22.70;50.20;;;;;;4903103;29;20055;-75
2022/05/12 10:24:13;;;;;;;4.25;0.95;;;22.60;49.10;;;;;;4901002;29;20036;-75
2022/05/12 10:26:48;;;;;;;4.65;1.33;;;22.00;48.80;;;;;;4893692;29;20024;-77
2022/05/12 10:29:37;;;;;;;5.65;1.30;;;20.60;52.70;;;;;;4899219;29;20600;-75
2022/05/12 10:32:29;;;;;;;8.73;1.10;;;20.80;55.40;;;;;;4897825;29;20035;-75
2022/05/12 10:35:00;;;;;;;8.20;1.60;;;21.20;56.00;;;;;;4899484;29;20088;-75
2022/05/12 10:37:29;;;;;;;6.18;1.13;;;20.60;54.70;;;;;;4897206;29;20024;-75
2022/05/12 10:40:10;;;;;;;10.40;1.85;;;19.70;60.30;;;;;;4902456;29;20032;-74
2022/05/12 10:43:06;;;;;;;10.20;2.00;;;18.90;61.20;;;;;;4899681;29;20042;-74
2022/05/12 10:45:38;;;;;;;10.32;1.80;;;18.50;64.80;;;;;;4900015;29;20099;-74
2022/05/12 10:48:28;;;;;;;5.68;1.50;;;18.60;64.10;;;;;;4898026;29;20091;-75
2022/05/12 10:51:03;;;;;;;9.60;1.70;;;19.10;67.90;;;;;;4899261;29;20048;-73
2022/05/12 10:53:50;;;;;;;6.72;1.70;;;20.60;61.30;;;;;;4904442;29;20066;-76
2022/05/12 10:56:49;;;;;;;7.97;1.58;;;22.80;57.30;;;;;;4903216;29;20500;-77
2022/05/12 10:59:33;;;;;;;11.88;1.80;;;25.10;51.30;;;;;;4895824;29;20083;-75
2022/05/12 11:02:11;;;;;;;8.98;1.60;;;26.30;46.30;;;;;;4886583;29;20028;-74
2022/05/12 11:04:41;;;;;;;10.23;1.85;;;24.90;45.30;;;;;;4907760;29;20031;-74
2022/05/12 11:07:22;;;;;;;4.70;1.57;;;23.60;51.00;;;;;;4904375;29;20035;-75
2022/05/12 11:10:35;;;;;;;10.63;1.83;;;21.50;53.10;;;;;;4220951;29;10001482;-74
2022/05/12 11:13:32;;;;;;;9.40;1.73;;;20.20;61.00;;;;;;4855974;29;20048;-76
2022/05/12 11:16:35;;;;;;;9.20;1.52;;;19.40;63.70;;;;;;4903617;29;20035;-75
2022/05/12 11:19:05;;;;;;;8.95;1.58;;;18.60;66.70;;;;;;4880176;29;20702;-75
2022/05/12 11:21:42;;;;;;;5.38;1.52;;;18.50;67.70;;;;;;4553429;28;10000193;-76
2022/05/12 11:24:18;;;;;;;7.65;1.77;;;18.50;64.30;;;;;;4889003;29;20037;-76
2022/05/12 11:27:09;;;;;;;13.25;1.73;;;18.50;66.80;;;;;;4888549;29;20037;-73
2022/05/12 11:29:56;;;;;;;6.88;1.33;;;18.10;68.40;;;;;;4900894;29;20572;-74
2022/05/12 11:32:27;;;;;;;6.22;2.03;;;17.80;67.00;;;;;;4902303;29;20048;-74
2022/05/12 11:34:59;;;;;;;8.63;1.83;;;17.50;69.70;;;;;;4906233;29;20032;-74
2022/05/12 11:37:33;;;;;;;9.02;1.45;;;17.80;72.00;;;;;;4901870;29;20039;-74
2022/05/12 11:40:04;;;;;;;9.98;2.00;;;18.00;67.90;;;;;;4898523;29;20043;-73
2022/05/12 11:44:23;;;;;;;8.80;2.00;;;18.30;65.50;;;;;;4888694;29;20044;-74
2022/05/12 11:45:35;;;;;;;14.00;1.98;;;18.10;67.00;;;;;;4893151;29;19966;-76
2022/05/12 11:48:34;;;;;;;5.82;1.60;;;17.80;67.80;;;;;;4906788;29;20028;-74
2022/05/12 11:51:21;;;;;;;10.50;1.98;;;17.80;66.50;;;;;;4906374;29;20058;-73
2022/05/12 11:54:03;;;;;;;9.55;1.70;;;17.80;67.00;;;;;;4905565;29;20172;-74
2022/05/12 11:56:56;;;;;;;6.47;1.42;;;18.40;67.80;;;;;;4897861;29;20036;-75
2022/05/12 11:59:43;;;;;;;12.02;2.33;;;19.20;64.60;;;;;;4895742;29;20503;-74
2022/05/12 12:02:44;;;;;;;8.30;2.13;;;19.10;61.40;;;;;;4905975;29;20036;-76
2022/05/12 12:05:30;;;;;;;6.50;1.05;;;18.80;60.90;;;;;;4884884;29;20048;-74
2022/05/12 12:08:04;;;;;;;8.80;1.05;;;19.10;62.90;;;;;;4917099;29;20033;-75
2022/05/12 12:10:34;;;;;;;7.97;1.02;;;19.60;59.50;;;;;;4897769;29;20044;-74
2022/05/12 12:13:03;;;;;;;4.72;1.23;;;20.30;56.80;;;;;;4908491;29;20035;-75
2022/05/12 12:15:35;;;;;;;9.20;1.20;;;20.60;55.10;;;;;;4892943;29;20032;-74
2022/05/12 12:18:28;;;;;;;5.25;1.33;;;20.10;55.50;;;;;;4893463;29;20028;-75
2022/05/12 12:20:58;;;;;;;10.10;0.95;;;20.00;58.60;;;;;;4905110;29;20024;-75
2022/05/12 12:23:31;;;;;;;7.00;1.15;;;19.80;59.70;;;;;;4906105;29;20165;-74
2022/05/12 12:26:05;;;;;;;5.38;1.00;;;20.30;58.90;;;;;;4905340;29;20028;-73
2022/05/12 12:28:54;;;;;;;4.55;1.42;;;20.00;54.30;;;;;;4906777;29;20031;-73
2022/05/12 12:31:40;;;;;;;5.10;0.93;;;19.70;58.40;;;;;;4901954;29;20056;-79
2022/05/12 12:34:18;;;;;;;6.55;1.15;;;20.10;59.90;;;;;;4888513;29;20044;-75
2022/05/12 12:36:47;;;;;;;4.90;1.20;;;20.70;56.20;;;;;;4887299;29;20028;-77
2022/05/12 12:39:28;;;;;;;6.38;1.23;;;21.00;58.20;;;;;;4886843;29;20067;-77
2022/05/12 12:42:10;;;;;;;7.20;1.45;;;20.60;57.30;;;;;;4906054;29;20563;-76
2022/05/12 12:44:43;;;;;;;8.60;1.20;;;20.70;61.10;;;;;;4887808;29;20052;-74
2022/05/12 12:47:29;;;;;;;8.98;1.95;;;21.30;60.60;;;;;;4893797;29;20420;-75
2022/05/12 12:50:13;;;;;;;6.40;1.08;;;21.60;59.70;;;;;;4888344;29;20488;-77
2022/05/12 12:52:41;;;;;;;6.22;1.45;;;21.90;54.30;;;;;;4887598;29;20045;-74
2022/05/12 12:58:06;;;;;;;8.32;1.30;;;20.90;53.30;;;;;;4900699;29;20071;-74
2022/05/12 13:00:34;;;;;;;6.13;1.20;;;20.20;59.50;;;;;;4906046;29;20149;-76
2022/05/12 13:03:06;;;;;;;6.53;1.90;;;19.80;56.70;;;;;;4890203;29;20404;-74
2022/05/12 13:05:33;;;;;;;10.57;1.65;;;19.50;62.90;;;;;;4887163;29;20488;-73
2022/05/12 13:08:28;;;;;;;5.35;1.00;;;19.50;61.40;;;;;;4890697;29;20028;-73
2022/05/12 13:11:00;;;;;;;7.55;1.42;;;19.50;60.00;;;;;;4903469;29;20044;-75
2022/05/12 13:13:26;;;;;;;;;;;20.00;57.80;;;;;;4905141;29;19915;-75
2022/05/12 13:16:16;;;;;;;7.75;1.38;;;20.00;61.40;;;;;;4904850;29;19937;-73
2022/05/12 13:18:50;;;;;;;6.15;1.30;;;19.70;59.60;;;;;;4901720;29;20028;-73
2022/05/12 13:21:23;;;;;;;5.78;1.58;;;19.80;63.00;;;;;;4894150;29;20496;-74
2022/05/12 13:24:02;;;;;;;5.15;1.15;;;19.70;56.20;;;;;;4896086;29;20041;-74
2022/05/12 13:26:29;;;;;;;7.15;1.40;;;19.50;56.90;;;;;;4903007;29;20044;-76
2022/05/12 13:28:54;;;;;;;6.15;1.77;;;19.40;57.00;;;;;;4901089;29;20107;-73
2022/05/12 13:31:31;;;;;;;5.93;1.63;;;19.20;58.50;;;;;;4902689;29;20126;-74
2022/05/12 13:34:11;;;;;;;3.78;0.80;;;19.40;60.90;;;;;;4902216;29;20076;-74
2022/05/12 13:36:40;;;;;;;7.27;1.40;;;19.20;57.40;;;;;;4898108;29;20033;-74
2022/05/12 13:39:06;;;;;;;7.00;1.65;;;19.00;58.70;;;;;;4904497;29;20454;-73